createdAt,value
2018-08-13T00:04:51.808Z,25.80
2018-08-13T00:07:23.205Z,25.70
2018-08-13T00:09:54.701Z,25.70
2018-08-13T00:12:26.313Z,25.70
2018-08-13T00:14:57.783Z,25.60
2018-08-13T00:17:29.363Z,25.60
2018-08-13T00:20:07.863Z,25.60
2018-08-13T00:22:39.395Z,25.60
2018-08-13T00:25:10.906Z,25.60
2018-08-13T00:27:41.663Z,25.60
2018-08-13T00:30:13.006Z,25.60
2018-08-13T00:32:44.616Z,25.60
2018-08-13T00:35:16.207Z,25.60
2018-08-13T00:37:47.679Z,25.60
2018-08-13T00:40:19.200Z,25.60
2018-08-13T00:42:50.731Z,25.60
2018-08-13T00:45:22.314Z,25.60
2018-08-13T00:47:53.807Z,25.60
2018-08-13T00:50:25.431Z,25.50
2018-08-13T00:52:56.765Z,25.50
2018-08-13T00:55:28.334Z,25.50
2018-08-13T00:57:59.845Z,25.50
2018-08-13T01:00:31.530Z,25.50
2018-08-13T01:03:03.196Z,25.50
2018-08-13T01:05:34.766Z,25.50
2018-08-13T01:08:06.325Z,25.50
2018-08-13T01:10:37.791Z,25.50
2018-08-13T01:13:09.788Z,25.50
2018-08-13T01:15:41.350Z,25.50
2018-08-13T01:18:12.786Z,25.50
2018-08-13T01:20:44.210Z,25.50
2018-08-13T01:23:15.765Z,25.40
2018-08-13T01:25:47.260Z,25.40
2018-08-13T01:28:19.199Z,25.50
2018-08-13T01:30:50.758Z,25.40
2018-08-13T01:33:22.319Z,25.40
2018-08-13T01:35:53.824Z,25.40
2018-08-13T01:38:25.302Z,25.40
2018-08-13T01:40:56.740Z,25.40
2018-08-13T01:43:28.404Z,25.40
2018-08-13T01:45:59.791Z,25.40
2018-08-13T01:48:31.300Z,25.40
2018-08-13T01:51:02.764Z,25.40
2018-08-13T01:53:34.309Z,25.40
2018-08-13T01:56:05.753Z,25.40
2018-08-13T01:58:37.333Z,25.40
2018-08-13T02:01:08.746Z,25.40
2018-08-13T02:03:40.789Z,25.40
2018-08-13T02:06:12.273Z,25.40
2018-08-13T02:08:44.123Z,25.30
2018-08-13T02:11:15.673Z,25.30
2018-08-13T02:13:47.229Z,25.30
2018-08-13T02:16:18.734Z,25.30
2018-08-13T02:18:50.296Z,25.30
2018-08-13T02:21:21.831Z,25.30
2018-08-13T02:23:53.301Z,25.30
2018-08-13T02:26:24.802Z,25.30
2018-08-13T02:33:59.669Z,25.40
2018-08-13T02:36:31.433Z,25.30
2018-08-13T02:39:02.991Z,25.30
2018-08-13T02:41:34.521Z,25.30
2018-08-13T02:44:06.009Z,25.30
2018-08-13T02:46:37.670Z,25.30
2018-08-13T02:49:09.195Z,25.30
2018-08-13T02:51:40.747Z,25.30
2018-08-13T02:54:12.398Z,25.20
2018-08-13T02:56:43.877Z,25.20
2018-08-13T02:59:15.428Z,25.20
2018-08-13T03:01:46.895Z,25.20
2018-08-13T03:04:17.535Z,25.20
2018-08-13T03:06:48.909Z,25.20
2018-08-13T03:09:19.582Z,25.20
2018-08-13T03:11:51.215Z,25.20
2018-08-13T03:14:22.710Z,25.20
2018-08-13T03:16:54.439Z,25.20
2018-08-13T03:19:26.189Z,25.20
2018-08-13T03:21:57.733Z,25.20
2018-08-13T03:24:29.305Z,25.20
2018-08-13T03:27:00.835Z,25.10
2018-08-13T03:29:32.665Z,25.20
2018-08-13T03:32:03.899Z,25.10
2018-08-13T03:34:35.363Z,25.10
2018-08-13T03:37:07.208Z,25.10
2018-08-13T03:39:38.739Z,25.10
2018-08-13T03:47:13.045Z,25.30
2018-08-13T03:49:44.725Z,25.20
2018-08-13T03:52:16.412Z,25.10
2018-08-13T03:54:47.854Z,25.10
2018-08-13T03:57:19.396Z,25.10
2018-08-13T03:59:50.878Z,25.10
2018-08-13T04:02:22.385Z,25.10
2018-08-13T04:04:53.828Z,25.10
2018-08-13T04:07:25.388Z,25.10
2018-08-13T04:09:56.794Z,25.10
2018-08-13T04:12:28.311Z,25.10
2018-08-13T04:14:59.748Z,25.10
2018-08-13T04:17:31.196Z,25.10
2018-08-13T04:20:02.693Z,25.10
2018-08-13T04:22:34.018Z,25.10
2018-08-13T04:25:06.968Z,25.10
2018-08-13T04:27:37.617Z,25.10
2018-08-13T04:30:14.329Z,25.10
2018-08-13T04:32:46.922Z,25.10
2018-08-13T04:35:18.398Z,25.10
2018-08-13T04:37:49.971Z,25.10
2018-08-13T04:40:20.624Z,25.10
2018-08-13T04:42:51.991Z,25.00
2018-08-13T04:45:23.642Z,25.00
2018-08-13T04:47:56.220Z,25.00
2018-08-13T04:50:27.698Z,25.00
2018-08-13T04:52:59.071Z,25.00
2018-08-13T04:55:30.627Z,25.00
2018-08-13T04:58:02.196Z,25.00
2018-08-13T05:00:33.736Z,25.00
2018-08-13T05:03:05.230Z,25.10
2018-08-13T05:05:36.696Z,25.00
2018-08-13T05:08:08.221Z,25.00
2018-08-13T05:10:39.716Z,25.10
2018-08-13T05:13:11.309Z,25.00
2018-08-13T05:15:43.187Z,25.00
2018-08-13T05:18:14.647Z,25.00
2018-08-13T05:20:45.990Z,25.00
2018-08-13T05:23:17.491Z,25.00
2018-08-13T05:25:48.895Z,25.10
2018-08-13T05:28:20.483Z,25.10
2018-08-13T05:30:51.968Z,25.10
2018-08-13T05:33:23.375Z,25.10
2018-08-13T05:35:54.912Z,25.10
2018-08-13T05:38:25.532Z,25.10
2018-08-13T05:40:56.903Z,25.10
2018-08-13T05:43:28.405Z,25.10
2018-08-13T05:45:59.764Z,25.10
2018-08-13T05:48:31.439Z,25.20
2018-08-13T05:51:03.000Z,25.20
2018-08-13T05:53:34.609Z,25.30
2018-08-13T05:56:06.393Z,25.20
2018-08-13T05:58:37.869Z,25.30
2018-08-13T06:01:09.866Z,25.30
2018-08-13T06:03:41.677Z,25.30
2018-08-13T06:06:13.206Z,25.30
2018-08-13T06:08:44.738Z,25.30
2018-08-13T06:11:16.351Z,25.40
2018-08-13T06:13:47.845Z,25.40
2018-08-13T06:16:19.403Z,25.40
2018-08-13T06:18:50.743Z,25.50
2018-08-13T06:21:22.228Z,25.50
2018-08-13T06:23:53.690Z,25.50
2018-08-13T06:26:25.198Z,25.50
2018-08-13T06:28:56.628Z,25.50
2018-08-13T06:31:28.218Z,25.60
2018-08-13T06:33:59.738Z,25.60
2018-08-13T06:36:31.244Z,25.60
2018-08-13T06:39:02.864Z,25.70
2018-08-13T06:41:34.423Z,25.70
2018-08-13T06:44:07.226Z,25.80
2018-08-13T06:46:39.207Z,25.80
2018-08-13T06:49:10.806Z,25.80
2018-08-13T06:56:44.379Z,26.10
2018-08-13T06:59:15.797Z,26.10
2018-08-13T07:06:49.702Z,26.20
2018-08-13T07:12:06.808Z,26.10
2018-08-13T07:14:37.727Z,26.20
2018-08-13T07:17:08.783Z,26.20
2018-08-13T07:19:39.868Z,26.20
2018-08-13T07:22:10.853Z,26.30
2018-08-13T07:24:41.783Z,26.30
2018-08-13T07:27:13.310Z,26.30
2018-08-13T07:29:44.776Z,26.30
2018-08-13T07:32:16.315Z,26.30
2018-08-13T07:34:47.793Z,26.30
2018-08-13T07:37:18.990Z,26.40
2018-08-13T07:39:50.495Z,26.40
2018-08-13T07:42:21.873Z,26.40
2018-08-13T07:44:53.223Z,26.40
2018-08-13T07:47:24.726Z,26.40
2018-08-13T07:49:56.426Z,26.50
2018-08-13T07:52:27.812Z,26.50
2018-08-13T07:54:59.445Z,26.50
2018-08-13T07:57:30.870Z,26.50
2018-08-13T08:00:02.424Z,26.50
2018-08-13T08:02:33.748Z,26.60
2018-08-13T08:05:06.209Z,26.60
2018-08-13T08:07:37.776Z,26.60
2018-08-13T08:10:14.704Z,26.60
2018-08-13T08:12:46.205Z,26.70
2018-08-13T08:15:20.219Z,26.60
2018-08-13T08:17:51.588Z,26.70
2018-08-13T08:20:22.898Z,26.70
2018-08-13T08:22:54.395Z,26.70
2018-08-13T08:25:25.781Z,26.70
2018-08-13T08:27:57.316Z,26.70
2018-08-13T08:30:28.769Z,26.70
2018-08-13T08:33:00.237Z,26.70
2018-08-13T08:35:31.660Z,26.70
2018-08-13T08:38:03.209Z,26.70
2018-08-13T08:40:34.728Z,26.80
2018-08-13T08:43:06.616Z,26.80
2018-08-13T08:45:38.188Z,26.80
2018-08-13T08:48:11.309Z,26.80
2018-08-13T08:50:42.749Z,26.80
2018-08-13T08:53:14.211Z,26.80
2018-08-13T08:55:45.671Z,26.80
2018-08-13T08:58:17.263Z,26.80
2018-08-13T09:00:48.856Z,26.80
2018-08-13T09:03:20.274Z,26.80
2018-08-13T09:05:51.703Z,26.90
2018-08-13T09:08:22.901Z,26.80
2018-08-13T09:10:53.538Z,26.80
2018-08-13T09:13:24.887Z,26.80
2018-08-13T09:15:55.525Z,26.80
2018-08-13T09:18:49.754Z,26.80
2018-08-13T09:24:27.795Z,26.80
2018-08-13T09:27:21.823Z,26.80
2018-08-13T09:30:15.804Z,26.90
2018-08-13T09:33:09.766Z,26.80
2018-08-13T09:38:11.738Z,26.80
2018-08-13T09:40:42.814Z,26.80
2018-08-13T09:43:13.859Z,26.80
2018-08-13T09:45:44.904Z,26.90
2018-08-13T09:48:15.382Z,26.80
2018-08-13T09:50:46.621Z,26.80
2018-08-13T09:53:17.667Z,26.80
2018-08-13T09:55:48.744Z,26.80
2018-08-13T10:00:55.692Z,26.80
2018-08-13T10:03:26.777Z,26.80
2018-08-13T10:05:57.839Z,26.80
2018-08-13T10:08:28.776Z,26.80
2018-08-13T10:10:59.939Z,26.80
2018-08-13T10:13:30.460Z,26.80
2018-08-13T10:16:02.222Z,26.80
2018-08-13T10:18:33.498Z,26.80
2018-08-13T10:21:04.698Z,26.80
2018-08-13T10:23:35.844Z,26.80
2018-08-13T10:26:06.868Z,26.80
2018-08-13T10:28:37.800Z,26.80
2018-08-13T10:31:08.801Z,26.80
2018-08-13T10:33:39.809Z,26.80
2018-08-13T10:36:11.325Z,26.80
2018-08-13T10:38:42.543Z,26.80
2018-08-13T10:41:13.751Z,26.80
2018-08-13T10:43:44.794Z,26.80
2018-08-13T10:46:15.993Z,26.90
2018-08-13T10:48:47.072Z,26.90
2018-08-13T10:51:18.347Z,26.90
2018-08-13T10:53:49.588Z,26.90
2018-08-13T10:56:20.616Z,26.90
2018-08-13T10:58:51.693Z,26.90
2018-08-13T11:01:22.989Z,26.90
2018-08-13T11:03:54.748Z,26.80
2018-08-13T11:06:26.554Z,26.80
2018-08-13T11:08:57.886Z,26.90
2018-08-13T11:11:29.390Z,26.90
2018-08-13T11:14:00.739Z,26.90
2018-08-13T11:16:32.197Z,26.90
2018-08-13T11:19:03.752Z,26.90
2018-08-13T11:26:36.821Z,27.00
2018-08-13T11:29:08.189Z,27.00
2018-08-13T11:31:39.714Z,26.90
2018-08-13T11:34:11.217Z,26.90
2018-08-13T11:36:42.707Z,26.90
2018-08-13T11:39:14.451Z,26.90
2018-08-13T11:41:45.728Z,26.90
2018-08-13T11:44:17.215Z,26.90
2018-08-13T11:46:48.716Z,27.00
2018-08-13T11:49:20.619Z,26.90
2018-08-13T11:51:52.215Z,27.00
2018-08-13T11:54:23.725Z,26.90
2018-08-13T11:56:55.316Z,26.90
2018-08-13T11:59:26.756Z,26.90
2018-08-13T12:01:58.271Z,27.00
2018-08-13T12:04:29.732Z,27.00
2018-08-13T12:07:01.210Z,27.00
2018-08-13T12:09:32.722Z,27.00
2018-08-13T12:12:03.992Z,26.90
2018-08-13T12:14:35.344Z,27.00
2018-08-13T12:17:06.797Z,27.00
2018-08-13T12:24:40.699Z,27.10
2018-08-13T12:27:12.490Z,27.00
2018-08-13T12:29:44.584Z,27.00
2018-08-13T12:32:16.316Z,27.00
2018-08-13T12:34:47.749Z,27.00
2018-08-13T12:42:21.340Z,27.20
2018-08-13T12:44:52.762Z,27.10
2018-08-13T12:47:24.400Z,27.10
2018-08-13T12:49:55.897Z,27.10
2018-08-13T12:52:26.574Z,27.00
2018-08-13T12:54:57.901Z,27.00
2018-08-13T12:57:29.498Z,27.10
2018-08-13T13:00:00.896Z,27.10
2018-08-13T13:02:32.336Z,27.10
2018-08-13T13:05:03.789Z,27.00
2018-08-13T13:07:35.632Z,27.00
2018-08-13T13:10:10.475Z,27.00
2018-08-13T13:12:42.613Z,27.00
2018-08-13T13:15:18.852Z,27.00
2018-08-13T13:17:50.399Z,27.00
2018-08-13T13:20:24.662Z,27.00
2018-08-13T13:22:56.218Z,27.00
2018-08-13T13:25:28.682Z,27.00
2018-08-13T13:28:00.203Z,27.00
2018-08-13T13:30:31.698Z,27.00
2018-08-13T13:33:02.976Z,27.00
2018-08-13T13:35:33.600Z,27.00
2018-08-13T13:38:05.005Z,27.00
2018-08-13T13:40:37.421Z,27.00
2018-08-13T13:43:09.206Z,27.00
2018-08-13T13:45:40.737Z,27.00
2018-08-13T13:48:12.422Z,27.00
2018-08-13T13:50:43.759Z,27.00
2018-08-13T13:53:15.238Z,27.00
2018-08-13T13:55:46.721Z,26.90
2018-08-13T13:58:18.334Z,26.90
2018-08-13T14:00:49.865Z,26.90
2018-08-13T14:03:21.557Z,26.90
2018-08-13T14:05:53.072Z,26.90
2018-08-13T14:08:24.689Z,26.90
2018-08-13T14:10:56.237Z,26.90
2018-08-13T14:13:27.781Z,26.90
2018-08-13T14:15:59.197Z,26.90
2018-08-13T14:18:30.754Z,26.90
2018-08-13T14:21:02.221Z,26.90
2018-08-13T14:23:34.236Z,26.90
2018-08-13T14:26:05.747Z,26.90
2018-08-13T14:28:37.453Z,26.90
2018-08-13T14:31:09.017Z,26.90
2018-08-13T14:33:40.422Z,26.90
2018-08-13T14:36:11.832Z,26.90
2018-08-13T14:38:43.383Z,26.90
2018-08-13T14:41:14.757Z,26.90
2018-08-13T14:43:46.317Z,26.90
2018-08-13T14:46:17.858Z,26.90
2018-08-13T14:48:49.427Z,26.90
2018-08-13T14:51:20.877Z,26.90
2018-08-13T14:53:52.348Z,26.90
2018-08-13T14:56:23.748Z,26.90
2018-08-13T15:01:26.223Z,26.90
2018-08-13T15:03:57.662Z,26.90
2018-08-13T15:06:28.920Z,26.80
2018-08-13T15:08:59.490Z,26.80
2018-08-13T15:11:36.928Z,26.80
2018-08-13T15:14:07.779Z,26.80
2018-08-13T15:16:39.606Z,26.80
2018-08-13T15:19:11.958Z,26.80
2018-08-13T15:21:42.543Z,26.80
2018-08-13T15:24:14.022Z,26.80
2018-08-13T15:26:45.542Z,26.70
2018-08-13T15:29:16.913Z,26.70
2018-08-13T15:31:48.414Z,26.80
2018-08-13T15:34:19.843Z,26.80
2018-08-13T15:36:51.195Z,26.80
2018-08-13T15:39:22.687Z,26.80
2018-08-13T15:41:54.335Z,26.80
2018-08-13T15:44:25.810Z,26.70
2018-08-13T15:46:57.251Z,26.80
2018-08-13T15:49:28.917Z,26.70
2018-08-13T15:51:59.828Z,26.80
2018-08-13T15:54:31.293Z,26.70
2018-08-13T15:57:02.767Z,26.70
2018-08-13T15:59:34.385Z,26.70
2018-08-13T16:02:05.865Z,26.70
2018-08-13T16:04:37.504Z,26.70
2018-08-13T16:07:12.449Z,26.70
2018-08-13T16:09:43.798Z,26.70
2018-08-13T16:12:15.315Z,26.70
2018-08-13T16:14:47.273Z,26.70
2018-08-13T16:17:20.675Z,26.70
2018-08-13T16:19:51.907Z,26.70
2018-08-13T16:22:23.320Z,26.60
2018-08-13T16:24:54.781Z,26.70
2018-08-13T16:27:26.319Z,26.70
2018-08-13T16:29:57.775Z,26.60
2018-08-13T16:32:29.221Z,26.60
2018-08-13T16:35:00.685Z,26.60
2018-08-13T16:37:32.233Z,26.60
2018-08-13T16:40:03.871Z,26.60
2018-08-13T16:42:35.687Z,26.60
2018-08-13T16:45:07.685Z,26.60
2018-08-13T16:47:39.196Z,26.60
2018-08-13T16:50:32.755Z,26.60
2018-08-13T16:53:04.637Z,26.60
2018-08-13T16:55:35.917Z,26.60
2018-08-13T16:58:06.579Z,26.60
2018-08-13T17:00:38.213Z,26.60
2018-08-13T17:03:09.630Z,26.60
2018-08-13T17:05:41.362Z,26.60
2018-08-13T17:08:12.971Z,26.60
2018-08-13T17:16:49.487Z,26.60
2018-08-13T17:19:20.626Z,26.60
2018-08-13T17:21:51.711Z,26.60
2018-08-13T17:24:22.712Z,26.60
2018-08-13T17:26:53.777Z,26.60
2018-08-13T17:29:24.834Z,26.60
2018-08-13T17:31:55.822Z,26.60
2018-08-13T17:39:28.701Z,26.70
2018-08-13T17:41:59.815Z,26.60
2018-08-13T17:45:56.735Z,26.60
2018-08-13T17:48:27.696Z,26.60
2018-08-13T17:51:06.654Z,26.60
2018-08-13T17:53:38.660Z,26.50
2018-08-13T17:56:09.672Z,26.50
2018-08-13T17:58:40.692Z,26.50
2018-08-13T18:01:11.776Z,26.50
2018-08-13T18:03:42.894Z,26.50
2018-08-13T18:06:13.823Z,26.50
2018-08-13T18:21:31.428Z,26.50
2018-08-13T18:24:02.696Z,26.50
2018-08-13T18:26:33.675Z,26.50
2018-08-13T18:29:04.719Z,26.50
2018-08-13T18:31:35.711Z,26.50
2018-08-13T18:34:07.303Z,26.40
2018-08-13T18:36:38.500Z,26.40
2018-08-13T18:39:10.840Z,26.40
2018-08-13T18:41:43.609Z,26.40
2018-08-13T18:44:14.672Z,26.40
2018-08-13T18:46:45.685Z,26.40
2018-08-13T18:49:17.328Z,26.40
2018-08-13T18:51:48.763Z,26.40
2018-08-13T18:54:20.197Z,26.40
2018-08-13T18:56:51.829Z,26.40
2018-08-13T18:59:23.216Z,26.40
2018-08-13T19:01:54.719Z,26.40
2018-08-13T19:04:26.236Z,26.40
2018-08-13T19:06:57.681Z,26.40
2018-08-13T19:09:29.195Z,26.30
2018-08-13T19:12:00.681Z,26.30
2018-08-13T19:14:32.211Z,26.30
2018-08-13T19:17:03.765Z,26.30
2018-08-13T19:19:35.319Z,26.30
2018-08-13T19:22:06.881Z,26.30
2018-08-13T19:24:38.429Z,26.30
2018-08-13T19:27:09.830Z,26.30
2018-08-13T19:29:42.372Z,26.30
2018-08-13T19:32:13.772Z,26.30
2018-08-13T19:34:45.310Z,26.30
2018-08-13T19:37:16.775Z,26.30
2018-08-13T19:39:48.449Z,26.30
2018-08-13T19:42:19.917Z,26.30
2018-08-13T19:44:50.580Z,26.30
2018-08-13T19:47:22.191Z,26.30
2018-08-13T19:49:56.210Z,26.30
2018-08-13T19:52:27.643Z,26.20
2018-08-13T19:54:58.914Z,26.20
2018-08-13T19:57:29.519Z,26.20
2018-08-13T20:00:00.886Z,26.20
2018-08-13T20:02:32.489Z,26.20
2018-08-13T20:05:03.982Z,26.20
2018-08-13T20:07:35.519Z,26.20
2018-08-13T20:10:10.223Z,26.20
2018-08-13T20:12:41.741Z,26.20
2018-08-13T20:15:13.493Z,26.20
2018-08-13T20:17:46.267Z,26.20
2018-08-13T20:20:28.700Z,26.10
2018-08-13T20:23:01.680Z,26.10
2018-08-13T20:25:33.217Z,26.10
2018-08-13T20:28:04.725Z,26.10
2018-08-13T20:30:36.206Z,26.10
2018-08-13T20:33:07.888Z,26.10
2018-08-13T20:35:39.416Z,26.10
2018-08-13T20:38:10.796Z,26.10
2018-08-13T20:40:42.397Z,26.10
2018-08-13T20:43:13.911Z,26.10
2018-08-13T20:45:45.570Z,26.10
2018-08-13T20:48:16.957Z,26.10
2018-08-13T20:50:47.616Z,26.10
2018-08-13T20:53:19.204Z,26.10
2018-08-13T20:55:50.719Z,26.10
2018-08-13T20:58:22.430Z,26.10
2018-08-13T21:00:53.719Z,26.10
2018-08-13T21:03:25.500Z,26.10
2018-08-13T21:05:56.906Z,26.10
2018-08-13T21:08:27.585Z,26.10
2018-08-13T21:10:58.893Z,26.10
2018-08-13T21:13:30.571Z,26.10
2018-08-13T21:16:02.065Z,26.10
2018-08-13T21:18:33.706Z,26.10
2018-08-13T21:21:05.309Z,26.10
2018-08-13T21:23:37.674Z,26.10
2018-08-13T21:26:09.179Z,26.10
2018-08-13T21:28:41.450Z,26.10
2018-08-13T21:31:12.897Z,26.10
2018-08-13T21:33:44.734Z,26.10
2018-08-13T21:36:16.385Z,26.10
2018-08-13T21:38:48.002Z,26.10
2018-08-13T21:41:19.603Z,26.10
2018-08-13T21:43:51.189Z,26.10
2018-08-13T21:46:22.686Z,26.10
2018-08-13T21:48:54.621Z,26.10
2018-08-13T21:51:26.214Z,26.10
2018-08-13T21:53:57.715Z,26.10
2018-08-13T21:56:29.307Z,26.10
2018-08-13T21:59:00.768Z,26.00
2018-08-13T22:01:37.210Z,26.10
2018-08-13T22:04:08.736Z,26.10
2018-08-13T22:06:40.188Z,26.10
2018-08-13T22:09:11.965Z,26.10
2018-08-13T22:11:42.565Z,26.10
2018-08-13T22:14:14.215Z,26.10
2018-08-13T22:16:45.589Z,26.10
2018-08-13T22:19:16.812Z,26.00
2018-08-13T22:21:48.403Z,26.10
2018-08-13T22:24:42.755Z,26.10
2018-08-13T22:27:14.496Z,26.10
2018-08-13T22:29:46.213Z,26.10
2018-08-13T22:32:20.522Z,26.10
2018-08-13T22:34:53.235Z,26.10
2018-08-13T22:37:24.780Z,26.00
2018-08-13T22:39:56.343Z,26.10
2018-08-13T22:42:27.772Z,26.00
2018-08-13T22:44:59.387Z,26.00
2018-08-13T22:47:30.742Z,26.00
2018-08-13T22:50:02.703Z,26.10
2018-08-13T22:52:34.395Z,26.00
2018-08-13T22:55:06.997Z,26.10
2018-08-13T22:57:38.612Z,26.00
2018-08-13T23:00:14.740Z,26.00
2018-08-13T23:02:47.214Z,26.00
2018-08-13T23:05:23.701Z,26.10
2018-08-13T23:07:55.190Z,26.00
2018-08-13T23:10:26.777Z,26.00
2018-08-13T23:12:58.835Z,26.00
2018-08-13T23:15:31.010Z,26.00
2018-08-13T23:18:02.695Z,26.00
2018-08-13T23:20:34.262Z,26.00
2018-08-13T23:23:05.766Z,26.00
2018-08-13T23:25:38.753Z,26.00
2018-08-13T23:28:13.463Z,26.00
2018-08-13T23:30:45.199Z,26.00
2018-08-13T23:33:18.977Z,26.00
2018-08-13T23:35:50.361Z,26.00
2018-08-13T23:38:21.865Z,26.00
2018-08-13T23:40:53.364Z,25.90
2018-08-13T23:43:24.772Z,25.90
2018-08-13T23:45:56.216Z,25.90
2018-08-13T23:48:27.703Z,25.90
2018-08-13T23:50:59.304Z,25.90
2018-08-13T23:53:30.768Z,25.90
2018-08-13T23:56:02.305Z,25.90
2018-08-13T23:58:33.765Z,25.90
